createdAt,value
2023-07-10T00:00:47.974Z,101463.34
2023-07-10T00:04:51.415Z,101458.13
2023-07-10T00:08:54.229Z,101449.34
2023-07-10T00:12:57.083Z,101449.69
2023-07-10T00:17:01.431Z,101461.78
2023-07-10T00:21:04.606Z,101467.97
2023-07-10T00:25:08.433Z,101455.31
2023-07-10T00:29:17.415Z,101470.56
2023-07-10T00:33:22.394Z,101484.69
2023-07-10T00:37:25.307Z,101475.53
2023-07-10T00:41:33.521Z,101480.28
2023-07-10T00:45:36.431Z,101479.16
2023-07-10T00:49:48.622Z,101469.81
2023-07-10T00:53:54.523Z,101473.78
2023-07-10T00:58:20.093Z,101480.94
2023-07-10T01:02:33.964Z,101489.78
2023-07-10T01:06:39.319Z,101491.25
2023-07-10T01:10:42.493Z,101494.53
2023-07-10T01:14:46.714Z,101481.81
2023-07-10T01:18:50.739Z,101490.91
2023-07-10T01:22:55.040Z,101509.97
2023-07-10T01:26:58.956Z,101513.84
2023-07-10T01:31:05.246Z,101502.47
2023-07-10T01:35:10.931Z,101495.28
2023-07-10T01:39:37.865Z,101495.88
2023-07-10T01:43:44.773Z,101504.41
2023-07-10T01:47:48.715Z,101506.94
2023-07-10T01:51:52.460Z,101501.63
2023-07-10T01:55:56.615Z,101509.91
2023-07-10T02:00:00.836Z,101509.06
2023-07-10T02:04:06.514Z,101509.56
2023-07-10T02:08:09.889Z,101509.59
2023-07-10T02:12:14.206Z,101492.53
2023-07-10T02:16:17.453Z,101491.75
2023-07-10T02:20:20.340Z,101496.94
2023-07-10T02:24:23.125Z,101481.19
2023-07-10T02:28:27.332Z,101493.69
2023-07-10T02:32:30.444Z,101483.78
2023-07-10T02:36:33.329Z,101487.13
2023-07-10T02:40:36.189Z,101523.63
2023-07-10T02:44:41.542Z,101514.78
2023-07-10T02:48:44.397Z,101521.94
2023-07-10T02:52:47.233Z,101528.56
2023-07-10T02:56:50.241Z,101515.81
2023-07-10T03:00:59.196Z,101523.03
2023-07-10T03:05:02.195Z,101534.16
2023-07-10T03:09:05.433Z,101540.84
2023-07-10T03:13:08.308Z,101552.22
2023-07-10T03:17:12.508Z,101553.84
2023-07-10T03:21:15.363Z,101545.06
2023-07-10T03:25:18.292Z,101547.81
2023-07-10T03:29:21.129Z,101543.09
2023-07-10T03:33:25.396Z,101546.09
2023-07-10T03:37:28.234Z,101554.06
2023-07-10T03:41:31.171Z,101548.88
2023-07-10T03:45:34.052Z,101556.31
2023-07-10T03:49:38.250Z,101564.88
2023-07-10T03:53:41.206Z,101550.78
2023-07-10T03:57:44.052Z,101557.94
2023-07-10T04:01:46.901Z,101567.56
2023-07-10T04:05:53.784Z,101560.63
2023-07-10T04:09:57.290Z,101565.88
2023-07-10T04:14:00.141Z,101570.81
2023-07-10T04:18:03.021Z,101584.13
2023-07-10T04:22:07.577Z,101574.41
2023-07-10T04:26:16.718Z,101573.56
2023-07-10T04:30:19.584Z,101583.22
2023-07-10T04:34:24.348Z,101580.41
2023-07-10T04:38:30.348Z,101583.69
2023-07-10T04:42:33.359Z,101583.94
2023-07-10T04:46:36.833Z,101593.59
2023-07-10T04:50:39.689Z,101599.38
2023-07-10T04:54:43.888Z,101604.91
2023-07-10T04:58:50.870Z,101606.34
2023-07-10T05:02:55.059Z,101605.03
2023-07-10T05:06:59.311Z,101604.50
2023-07-10T05:11:03.877Z,101617.78
2023-07-10T05:15:07.942Z,101615.03
2023-07-10T05:19:10.885Z,101610.31
2023-07-10T05:23:14.286Z,101614.44
2023-07-10T05:27:18.421Z,101610.00
2023-07-10T05:31:21.499Z,101604.16
2023-07-10T05:35:25.429Z,101601.34
2023-07-10T05:39:32.134Z,101611.25
2023-07-10T05:43:38.382Z,101624.53
2023-07-10T05:47:41.449Z,101628.94
2023-07-10T05:51:44.346Z,101628.97
2023-07-10T05:55:48.275Z,101631.78
2023-07-10T05:59:54.284Z,101637.88
2023-07-10T06:03:57.427Z,101638.13
2023-07-10T06:08:00.397Z,101635.38
2023-07-10T06:12:04.351Z,101642.25
2023-07-10T06:16:12.127Z,101648.59
2023-07-10T06:20:16.589Z,101650.00
2023-07-10T06:24:19.952Z,101652.44
2023-07-10T06:28:23.317Z,101645.72
2023-07-10T06:32:28.353Z,101647.81
2023-07-10T06:36:31.504Z,101654.84
2023-07-10T06:40:34.569Z,101661.16
2023-07-10T06:44:37.650Z,101658.56
2023-07-10T06:48:43.966Z,101663.72
2023-07-10T06:52:48.019Z,101665.09
2023-07-10T06:56:52.210Z,101657.53
2023-07-10T07:00:56.068Z,101660.00
2023-07-10T07:05:00.640Z,101661.34
2023-07-10T07:09:04.124Z,101666.66
2023-07-10T07:13:06.962Z,101659.38
2023-07-10T07:17:10.244Z,101663.91
2023-07-10T07:21:15.902Z,101671.03
2023-07-10T07:25:19.433Z,101661.72
2023-07-10T07:29:22.352Z,101678.03
2023-07-10T07:33:25.480Z,101671.41
2023-07-10T07:37:29.845Z,101672.63
2023-07-10T07:41:33.160Z,101673.88
2023-07-10T07:45:36.331Z,101679.75
2023-07-10T07:49:39.272Z,101681.22
2023-07-10T07:53:43.423Z,101688.72
2023-07-10T07:57:46.681Z,101693.38
2023-07-10T08:01:49.938Z,101680.59
2023-07-10T08:05:53.588Z,101683.41
2023-07-10T08:10:00.035Z,101688.66
2023-07-10T08:14:03.357Z,101680.78
2023-07-10T08:18:06.746Z,101688.13
2023-07-10T08:22:09.626Z,101686.44
2023-07-10T08:26:14.199Z,101698.34
2023-07-10T08:30:17.531Z,101692.56
2023-07-10T08:34:21.190Z,101691.94
2023-07-10T08:38:24.222Z,101687.06
2023-07-10T08:42:32.514Z,101676.94
2023-07-10T08:46:35.771Z,101674.78
2023-07-10T08:50:40.743Z,101674.78
2023-07-10T08:54:47.383Z,101663.41
2023-07-10T08:58:52.736Z,101653.69
2023-07-10T09:03:07.318Z,101660.50
2023-07-10T09:07:11.972Z,101661.91
2023-07-10T09:11:15.441Z,101655.38
2023-07-10T09:15:26.576Z,101658.59
2023-07-10T09:19:32.439Z,101656.03
2023-07-10T09:23:36.376Z,101656.31
2023-07-10T09:27:39.250Z,101654.25
2023-07-10T09:31:50.481Z,101661.47
2023-07-10T09:35:54.106Z,101656.38
2023-07-10T09:39:57.036Z,101653.16
2023-07-10T09:44:02.350Z,101652.41
2023-07-10T09:48:15.079Z,101666.53
2023-07-10T09:52:24.143Z,101655.59
2023-07-10T09:56:29.186Z,101662.47
2023-07-10T10:00:35.661Z,101667.81
2023-07-10T10:04:43.962Z,101656.63
2023-07-10T10:08:48.472Z,101646.59
2023-07-10T10:13:05.486Z,101654.06
2023-07-10T10:17:14.064Z,101659.75
2023-07-10T10:21:21.295Z,101652.34
2023-07-10T10:25:34.625Z,101662.09
2023-07-10T10:29:57.336Z,101677.31
2023-07-10T10:34:06.840Z,101677.78
2023-07-10T10:38:31.534Z,101668.06
2023-07-10T10:42:43.663Z,101657.31
2023-07-10T10:47:03.335Z,101662.75
2023-07-10T10:51:18.447Z,101668.59
2023-07-10T10:55:34.433Z,101673.44
2023-07-10T10:59:48.179Z,101680.31
2023-07-10T11:03:56.531Z,101678.69
2023-07-10T11:08:05.583Z,101682.25
2023-07-10T11:12:18.139Z,101675.66
2023-07-10T11:16:22.266Z,101671.47
2023-07-10T11:20:27.687Z,101677.47
2023-07-10T11:24:35.346Z,101679.19
2023-07-10T11:29:05.655Z,101676.31
2023-07-10T11:33:18.818Z,101674.28
2023-07-10T11:38:06.758Z,101676.69
2023-07-10T11:42:18.540Z,101677.78
2023-07-10T11:50:57.180Z,101672.56
2023-07-10T11:55:10.266Z,101663.03
2023-07-10T11:59:21.697Z,101660.50
2023-07-10T12:03:24.846Z,101666.47
2023-07-10T12:07:29.902Z,101667.28
2023-07-10T12:11:34.921Z,101666.16
2023-07-10T12:15:39.104Z,101669.44
2023-07-10T12:19:44.045Z,101672.91
2023-07-10T12:24:01.897Z,101678.31
2023-07-10T12:32:17.996Z,101673.47
2023-07-10T12:36:26.291Z,101681.38
2023-07-10T12:40:33.325Z,101679.88
2023-07-10T12:44:46.156Z,101669.56
2023-07-10T12:48:54.390Z,101672.69
2023-07-10T12:52:57.255Z,101667.75
2023-07-10T12:57:02.207Z,101670.28
2023-07-10T13:01:19.890Z,101657.38
2023-07-10T13:05:25.514Z,101658.88
2023-07-10T13:09:31.909Z,101668.44
2023-07-10T13:13:40.466Z,101664.44
2023-07-10T13:17:48.354Z,101667.66
2023-07-10T13:21:51.561Z,101662.19
2023-07-10T13:25:56.732Z,101659.53
2023-07-10T13:30:01.607Z,101676.22
2023-07-10T13:34:05.949Z,101667.66
2023-07-10T13:38:13.077Z,101666.59
2023-07-10T13:42:16.733Z,101669.78
2023-07-10T13:46:26.700Z,101659.44
2023-07-10T13:50:29.537Z,101664.19
2023-07-10T13:54:33.320Z,101661.63
2023-07-10T13:58:36.353Z,101661.91
2023-07-10T14:02:44.417Z,101651.34
2023-07-10T14:06:48.496Z,101654.38
2023-07-10T14:10:52.603Z,101649.75
2023-07-10T14:14:55.889Z,101642.00
2023-07-10T14:19:00.575Z,101641.09
2023-07-10T14:23:03.522Z,101640.06
2023-07-10T14:27:17.663Z,101641.81
2023-07-10T14:31:22.111Z,101642.59
2023-07-10T14:35:31.513Z,101641.88
2023-07-10T14:39:37.055Z,101635.44
2023-07-10T14:43:40.493Z,101635.41
2023-07-10T14:47:45.393Z,101635.34
2023-07-10T14:51:49.762Z,101629.63
2023-07-10T14:55:54.833Z,101630.19
2023-07-10T14:59:58.433Z,101625.06
2023-07-10T15:04:01.449Z,101635.50
2023-07-10T15:08:07.345Z,101628.28
2023-07-10T15:12:13.175Z,101613.38
2023-07-10T15:16:18.899Z,101617.97
2023-07-10T15:20:28.251Z,101605.03
2023-07-10T15:24:51.552Z,101605.97
2023-07-10T15:28:57.301Z,101592.88
2023-07-10T15:33:07.371Z,101598.34
2023-07-10T15:37:21.763Z,101584.66
2023-07-10T15:41:33.685Z,101584.13
2023-07-10T15:45:43.935Z,101592.25
2023-07-10T15:49:48.407Z,101585.44
2023-07-10T15:53:51.456Z,101583.25
2023-07-10T15:58:02.071Z,101582.38
2023-07-10T16:02:12.904Z,101574.13
2023-07-10T16:06:16.138Z,101576.03
2023-07-10T16:10:21.634Z,101576.50
2023-07-10T16:14:29.649Z,101572.88
2023-07-10T16:18:34.638Z,101577.41
2023-07-10T16:22:40.545Z,101569.75
2023-07-10T16:26:46.822Z,101571.59
2023-07-10T16:30:52.631Z,101559.06
2023-07-10T16:34:56.761Z,101560.63
2023-07-10T16:39:00.961Z,101558.63
2023-07-10T16:43:13.032Z,101559.88
2023-07-10T16:47:19.793Z,101559.72
2023-07-10T16:51:26.016Z,101551.31
2023-07-10T16:55:30.842Z,101540.88
2023-07-10T16:59:33.764Z,101544.66
2023-07-10T17:03:38.246Z,101537.56
2023-07-10T17:07:44.707Z,101538.03
2023-07-10T17:12:01.968Z,101536.03
2023-07-10T17:16:25.950Z,101532.59
2023-07-10T17:20:50.336Z,101525.41
2023-07-10T17:25:14.403Z,101527.72
2023-07-10T17:29:35.434Z,101528.22
2023-07-10T17:33:50.683Z,101526.84
2023-07-10T17:38:14.937Z,101512.41
2023-07-10T17:42:37.407Z,101511.81
2023-07-10T17:46:53.224Z,101515.47
2023-07-10T17:51:07.664Z,101527.00
2023-07-10T17:55:20.253Z,101515.69
2023-07-10T17:59:23.518Z,101519.34
2023-07-10T18:03:34.848Z,101511.81
2023-07-10T18:07:39.534Z,101521.84
2023-07-10T18:11:44.315Z,101520.22
2023-07-10T18:16:07.977Z,101525.84
2023-07-10T18:20:13.571Z,101520.59
2023-07-10T18:24:20.177Z,101522.75
2023-07-10T18:28:27.274Z,101520.47
2023-07-10T18:32:30.477Z,101508.50
2023-07-10T18:36:34.060Z,101503.59
2023-07-10T18:40:39.023Z,101511.25
2023-07-10T18:44:44.450Z,101510.75
2023-07-10T18:48:48.403Z,101512.91
2023-07-10T18:52:51.519Z,101513.88
2023-07-10T18:56:54.565Z,101513.53
2023-07-10T19:01:04.224Z,101504.50
2023-07-10T19:05:09.242Z,101507.78
2023-07-10T19:09:18.546Z,101512.16
2023-07-10T19:13:23.708Z,101503.41
2023-07-10T19:17:34.052Z,101500.25
2023-07-10T19:21:37.416Z,101500.50
2023-07-10T19:25:41.937Z,101498.03
2023-07-10T19:29:45.920Z,101493.75
2023-07-10T19:33:51.599Z,101481.09
2023-07-10T19:38:03.909Z,101497.75
2023-07-10T19:42:21.900Z,101486.25
2023-07-10T19:46:39.160Z,101495.97
2023-07-10T19:50:58.092Z,101495.13
2023-07-10T19:55:04.797Z,101491.44
2023-07-10T19:59:12.128Z,101480.59
2023-07-10T20:03:18.573Z,101474.13
2023-07-10T20:07:23.358Z,101472.91
2023-07-10T20:11:27.664Z,101466.78
2023-07-10T20:15:42.795Z,101475.78
2023-07-10T20:20:05.632Z,101471.38
2023-07-10T20:24:30.477Z,101461.63
2023-07-10T20:28:52.876Z,101460.22
2023-07-10T20:33:14.474Z,101454.88
2023-07-10T20:37:34.658Z,101460.63
2023-07-10T20:41:58.722Z,101460.00
2023-07-10T20:46:07.393Z,101459.09
2023-07-10T20:50:15.335Z,101449.84
2023-07-10T20:54:20.557Z,101445.31
2023-07-10T20:58:28.782Z,101442.94
2023-07-10T21:02:34.533Z,101435.03
2023-07-10T21:06:38.687Z,101432.44
2023-07-10T21:10:43.577Z,101433.47
2023-07-10T21:14:50.350Z,101427.47
2023-07-10T21:18:55.793Z,101433.72
2023-07-10T21:22:59.604Z,101431.34
2023-07-10T21:27:23.232Z,101421.53
2023-07-10T21:31:29.851Z,101426.16
2023-07-10T21:35:36.514Z,101424.06
2023-07-10T21:39:39.599Z,101422.19
2023-07-10T21:43:42.638Z,101406.25
2023-07-10T21:47:46.906Z,101410.25
2023-07-10T21:51:51.314Z,101405.38
2023-07-10T21:55:58.325Z,101412.38
2023-07-10T22:00:01.324Z,101413.06
2023-07-10T22:04:11.626Z,101407.38
2023-07-10T22:08:15.578Z,101395.84
2023-07-10T22:12:18.633Z,101399.22
2023-07-10T22:16:26.025Z,101384.34
2023-07-10T22:20:41.984Z,101381.63
2023-07-10T22:24:45.114Z,101390.59
2023-07-10T22:28:48.505Z,101381.25
2023-07-10T22:32:51.796Z,101391.56
2023-07-10T22:36:56.118Z,101387.81
2023-07-10T22:41:02.269Z,101386.63
2023-07-10T22:45:06.107Z,101384.56
2023-07-10T22:49:13.396Z,101386.88
2023-07-10T22:53:18.765Z,101380.09
2023-07-10T22:57:21.672Z,101381.63
2023-07-10T23:01:26.401Z,101374.78
2023-07-10T23:05:32.650Z,101380.06
2023-07-10T23:09:37.030Z,101374.88
2023-07-10T23:13:40.196Z,101376.84
2023-07-10T23:17:44.093Z,101374.44
2023-07-10T23:21:46.912Z,101370.31
2023-07-10T23:25:51.393Z,101365.72
2023-07-10T23:29:54.582Z,101361.38
2023-07-10T23:33:57.491Z,101359.16
2023-07-10T23:38:00.569Z,101358.66
2023-07-10T23:42:05.456Z,101351.28
2023-07-10T23:46:08.684Z,101351.03
2023-07-10T23:50:13.257Z,101340.38
2023-07-10T23:54:16.229Z,101340.41
2023-07-10T23:58:20.927Z,101336.31
